Natalia, Texas
Current Conditions -  °F | °C
As of 1:35 PM on Thursday 23 Oct 2014 (Local Time) from KCVB Reporting Station
Clear Clear  
Wind Chill: 83°   Ceiling: Unl
Heat Index: 83°   Visibility: 10mi
Dew Point: 55°   Wind: 3mph
Humidity: 38%   Direction: 140°SE
Pressure: 30.13"   Gusts: NA
Location:  29.19°N, 98.86°W
Report Text: KCVB 231835Z AUTO 14003KT 10SM CLR 28/13 A3013 RMK AO2 T02820125
Loading
Personal Weather Stations






























Interactive Weather Map
Tropical Storm Tracking
New forecast layout! Learn more

10-Day Weather Forecast

Advertisements
Track Severe Weather on mobile